Time;durP1;ratioP1;P1;durP2;ratioP2;P2;SDS_P1;SDS_P2;PMS_P1;PMS_P2;Temp;Humidity;BMP_temperature;BMP_pressure;BME280_temperature;BME280_humidity;BME280_pressure;Samples;Min_cycle;Max_cycle;Signal;HPM_P1;HPM_P2
2021/06/16 00:01:31;;;;;;;;;;;;;;;17.02;77.60;100461.56;5030740;28;1293;-82
2021/06/16 00:03:56;;;;;;;;;;;;;;;17.06;77.28;100460.72;4998414;28;1899;-82
2021/06/16 00:06:22;;;;;;;;;;;;;;;17.04;77.50;100462.09;4998676;28;729;-82
2021/06/16 00:08:47;;;;;;;;;;;;;;;17.02;77.61;100458.84;5030217;28;1384;-80
2021/06/16 00:11:12;;;;;;;;;;;;;;;17.04;77.44;100449.31;4998683;28;983;-81
2021/06/16 00:13:38;;;;;;;;;;;;;;;17.05;77.35;100447.44;5030354;28;1179;-81
2021/06/16 00:16:03;;;;;;;;;;;;;;;17.07;77.37;100450.69;4998428;28;727;-80
2021/06/16 00:18:28;;;;;;;;;;;;;;;17.06;77.00;100449.03;5030131;28;1292;-81
2021/06/16 00:20:54;;;;;;;;;;;;;;;17.02;77.61;100445.25;4998527;28;801;-81
2021/06/16 00:23:19;;;;;;;;;;;;;;;17.00;77.32;100436.53;4998216;28;1866;-82
2021/06/16 00:25:44;;;;;;;;;;;;;;;17.01;77.67;100439.00;5030223;28;1203;-79
2021/06/16 00:28:09;;;;;;;;;;;;;;;17.04;77.39;100437.63;4998203;28;765;-80
2021/06/16 00:30:35;;;;;;;;;;;;;;;17.07;77.54;100439.78;4998128;28;773;-82
2021/06/16 00:33:00;;;;;;;;;;;;;;;17.10;77.30;100441.94;4997855;28;866;-79
2021/06/16 00:35:25;;;;;;;;;;;;;;;17.16;77.19;100429.94;4997987;28;722;-80
2021/06/16 00:37:52;;;;;;;;;;;;;;;17.19;77.04;100429.41;4998092;28;824;-82
2021/06/16 00:40:21;;;;;;;;;;;;;;;17.23;77.18;100418.78;5029694;28;1317;-83
2021/06/16 00:42:47;;;;;;;;;;;;;;;17.27;77.14;100422.56;5029768;28;1923;-80
2021/06/16 00:45:12;;;;;;;;;;;;;;;17.30;77.16;100417.38;4998007;28;842;-80
2021/06/16 00:47:38;;;;;;;;;;;;;;;17.32;77.11;100420.63;4997714;28;803;-81
2021/06/16 00:50:07;;;;;;;;;;;;;;;17.38;76.99;100415.97;5029711;28;1318;-82
2021/06/16 00:52:33;;;;;;;;;;;;;;;17.42;76.79;100421.69;5046203;28;1199;-81
2021/06/16 00:54:58;;;;;;;;;;;;;;;17.43;76.81;100417.88;4998057;28;783;-81
2021/06/16 00:57:24;;;;;;;;;;;;;;;17.43;76.81;100417.88;5029606;28;1231;-82
2021/06/16 01:00:09;;;;;;;;;;;;;;;17.42;77.02;100421.69;5036115;28;1571;-83
2021/06/16 01:02:40;;;;;;;;;;;;;;;17.44;77.06;100430.38;5008814;28;1973;-83
2021/06/16 01:05:06;;;;;;;;;;;;;;;17.47;77.14;100429.84;5029598;28;1265;-81
2021/06/16 01:07:33;;;;;;;;;;;;;;;17.50;77.29;100423.81;4996906;28;1243;-82
2021/06/16 01:10:03;;;;;;;;;;;;;;;17.53;77.01;100421.34;4997899;28;828;-82
2021/06/16 01:12:28;;;;;;;;;;;;;;;17.55;76.85;100432.78;4997767;28;895;-81
2021/06/16 01:15:05;;;;;;;;;;;;;;;17.55;76.76;100429.25;4997491;28;913;-81
2021/06/16 01:17:33;;;;;;;;;;;;;;;17.55;76.70;100430.03;4996487;28;1216;-82
2021/06/16 01:19:59;;;;;;;;;;;;;;;17.56;76.40;100439.03;5029259;28;1173;-81
2021/06/16 01:22:24;;;;;;;;;;;;;;;17.60;76.37;100436.56;4998497;28;1948;-81
2021/06/16 01:24:52;;;;;;;;;;;;;;;17.64;76.36;100432.19;5007296;28;754;-82
2021/06/16 01:27:17;;;;;;;;;;;;;;;17.66;76.16;100433.50;5004969;28;1224;-82
2021/06/16 01:29:43;;;;;;;;;;;;;;;17.67;76.25;100440.59;4997233;28;759;-81
2021/06/16 01:32:09;;;;;;;;;;;;;;;17.70;75.98;100437.31;4997278;28;814;-81
2021/06/16 01:34:35;;;;;;;;;;;;;;;17.73;75.99;100439.47;4997137;28;749;-82
2021/06/16 01:37:01;;;;;;;;;;;;;;;17.75;75.90;100441.94;4996078;28;1220;-82
2021/06/16 01:39:28;;;;;;;;;;;;;;;17.78;75.77;100433.97;4997167;28;763;-82
2021/06/16 01:41:54;;;;;;;;;;;;;;;17.79;76.00;100440.28;4995925;28;1149;-81
2021/06/16 01:44:21;;;;;;;;;;;;;;;17.78;75.85;100431.25;4996880;28;1977;-81
2021/06/16 01:46:48;;;;;;;;;;;;;;;17.77;75.72;100428.84;4995642;28;1286;-81
2021/06/16 01:49:15;;;;;;;;;;;;;;;17.77;76.01;100435.09;4995560;28;1161;-81
2021/06/16 01:51:41;;;;;;;;;;;;;;;17.78;75.84;100433.19;4995634;28;1172;-80
2021/06/16 01:54:07;;;;;;;;;;;;;;;17.75;75.80;100442.72;4996591;28;749;-81
2021/06/16 01:56:34;;;;;;;;;;;;;;;17.76;75.83;100449.78;4996651;28;724;-82
2021/06/16 01:59:00;;;;;;;;;;;;;;;17.73;75.84;100444.94;4996672;28;819;-81
2021/06/16 02:01:26;;;;;;;;;;;;;;;17.72;76.00;100445.19;5028322;28;1172;-82
2021/06/16 02:03:52;;;;;;;;;;;;;;;17.71;76.04;100444.41;4996698;28;1910;-82
2021/06/16 02:06:18;;;;;;;;;;;;;;;17.72;76.28;100447.94;4996984;28;709;-81
2021/06/16 02:08:45;;;;;;;;;;;;;;;17.74;76.08;100453.91;5028465;28;1184;-81
2021/06/16 02:11:11;;;;;;;;;;;;;;;17.73;76.22;100449.56;4996758;28;736;-81
2021/06/16 02:13:45;;;;;;;;;;;;;;;17.74;76.09;100452.00;4995614;28;1132;-82
2021/06/16 02:16:34;;;;;;;;;;;;;;;17.75;76.50;100447.38;4996680;28;737;-82
2021/06/16 02:19:02;;;;;;;;;;;;;;;17.76;76.55;100449.00;5025112;28;1252;-82
2021/06/16 02:21:27;;;;;;;;;;;;;;;17.78;76.46;100457.69;5000611;28;795;-82
2021/06/16 02:23:52;;;;;;;;;;;;;;;17.80;76.16;100457.41;5000581;28;1878;-80
2021/06/16 02:26:19;;;;;;;;;;;;;;;17.81;76.21;100448.13;5000624;28;753;-81
2021/06/16 02:28:44;;;;;;;;;;;;;;;17.80;76.37;100450.06;4999562;28;1314;-82
2021/06/16 02:31:10;;;;;;;;;;;;;;;17.81;76.37;100453.59;5015218;28;1212;-81
2021/06/16 02:33:35;;;;;;;;;;;;;;;17.83;76.31;100456.84;5019588;28;698;-80
2021/06/16 02:36:01;;;;;;;;;;;;;;;17.86;76.11;100459.03;5019603;28;820;-81
2021/06/16 02:38:29;;;;;;;;;;;;;;;17.86;76.30;100453.59;5019220;28;1216;-80
2021/06/16 02:40:54;;;;;;;;;;;;;;;17.84;76.35;100445.69;5019980;28;772;-79
2021/06/16 02:43:21;;;;;;;;;;;;;;;17.84;76.13;100442.97;5019792;28;1866;-79
2021/06/16 02:45:47;;;;;;;;;;;;;;;17.81;76.15;100440.81;5020042;28;742;-79
2021/06/16 02:48:13;;;;;;;;;;;;;;;17.78;76.32;100436.72;5018747;28;1176;-79
2021/06/16 02:50:41;;;;;;;;;;;;;;;17.77;76.22;100440.53;5019692;28;810;-78
2021/06/16 02:53:09;;;;;;;;;;;;;;;17.77;76.34;100440.53;5019824;28;747;-79
2021/06/16 02:55:36;;;;;;;;;;;;;;;17.80;76.33;100452.78;5019596;28;826;-79
2021/06/16 02:58:01;;;;;;;;;;;;;;;17.84;76.52;100461.25;5019658;28;1014;-79
2021/06/16 03:00:27;;;;;;;;;;;;;;;17.84;76.04;100461.25;5019401;28;870;-79
2021/06/16 03:02:52;;;;;;;;;;;;;;;17.79;76.32;100462.06;5019366;28;1902;-79
2021/06/16 03:05:21;;;;;;;;;;;;;;;17.82;76.32;100466.13;5018378;28;1259;-79
2021/06/16 03:07:48;;;;;;;;;;;;;;;17.83;76.29;100467.75;5018348;28;1290;-79
2021/06/16 03:10:15;;;;;;;;;;;;;;;17.83;76.44;100470.47;5019323;28;859;-80
2021/06/16 03:12:42;;;;;;;;;;;;;;;17.84;76.25;100483.84;5019481;28;713;-80
2021/06/16 03:15:07;;;;;;;;;;;;;;;17.88;76.25;100484.91;5018209;28;1148;-79
2021/06/16 03:17:33;;;;;;;;;;;;;;;17.91;76.32;100478.09;5015349;28;1548;-80
2021/06/16 03:19:59;;;;;;;;;;;;;;;17.96;76.28;100488.94;5013615;28;928;-81
2021/06/16 03:22:25;;;;;;;;;;;;;;;17.99;76.13;100484.84;5040420;28;1874;-80
2021/06/16 03:24:51;;;;;;;;;;;;;;;18.01;76.04;100490.81;5050933;28;1164;-80
2021/06/16 03:27:19;;;;;;;;;;;;;;;17.99;76.13;100490.28;5019069;28;828;-82
2021/06/16 03:29:44;;;;;;;;;;;;;;;18.02;75.90;100485.09;5017996;28;1264;-81
2021/06/16 03:32:11;;;;;;;;;;;;;;;18.15;77.54;100495.38;5018296;28;846;-69
2021/06/16 03:34:36;;;;;;;;;;;;;;;19.34;75.65;100485.00;5018904;28;835;-68
2021/06/16 03:37:02;;;;;;;;;;;;;;;20.46;71.53;100487.25;5020907;28;776;-68
2021/06/16 03:39:28;;;;;;;;;;;;;;;21.19;68.99;100495.00;5018830;28;787;-68
2021/06/16 03:41:54;;;;;;;;;;;;;;;21.68;66.98;100493.50;5018147;28;838;-69
2021/06/16 03:44:19;;;;;;;;;;;;;;;22.06;66.37;100495.94;5049272;28;1858;-69
2021/06/16 03:46:45;;;;;;;;;;;;;;;22.33;65.44;100489.56;5017684;28;776;-69
2021/06/16 03:49:12;;;;;;;;;;;;;;;22.50;64.45;100483.38;5017809;28;705;-69
2021/06/16 03:51:39;;;;;;;;;;;;;;;22.62;64.11;100488.31;5017534;28;783;-68
2021/06/16 03:54:11;;;;;;;;;;;;;;;22.71;63.53;100483.66;5016659;28;1164;-69
2021/06/16 03:56:37;;;;;;;;;;;;;;;22.78;63.61;100484.03;5049570;28;1234;-73
2021/06/16 03:59:03;;;;;;;;;;;;;;;22.85;63.41;100486.31;5017567;28;855;-70
2021/06/16 04:01:28;;;;;;;;;;;;;;;22.90;62.88;100487.00;5017322;28;751;-70
2021/06/16 04:03:54;;;;;;;;;;;;;;;22.95;62.23;100494.28;5006683;28;1906;-70
2021/06/16 04:06:19;;;;;;;;;;;;;;;23.01;62.18;100494.97;5005764;28;1640;-70
2021/06/16 04:08:45;;;;;;;;;;;;;;;23.04;61.75;100495.16;5003102;28;1498;-69
2021/06/16 04:11:14;;;;;;;;;;;;;;;23.06;61.93;100495.66;5012081;28;1557;-69
2021/06/16 04:13:40;;;;;;;;;;;;;;;23.11;61.79;100506.50;5004783;28;1367;-69
2021/06/16 04:16:09;;;;;;;;;;;;;;;23.16;61.64;100507.47;5012004;28;777;-69
2021/06/16 04:18:35;;;;;;;;;;;;;;;23.20;61.37;100505.72;5013985;28;753;-70
2021/06/16 04:21:01;;;;;;;;;;;;;;;23.23;61.08;100502.34;5013143;28;761;-70
2021/06/16 04:23:26;;;;;;;;;;;;;;;23.26;61.11;100507.19;5016748;28;1943;-70
2021/06/16 04:25:52;;;;;;;;;;;;;;;23.26;60.94;100505.28;5012600;28;1608;-69
2021/06/16 04:28:17;;;;;;;;;;;;;;;23.27;60.92;100514.31;5004186;28;1608;-70
2021/06/16 04:30:42;;;;;;;;;;;;;;;23.26;61.01;100513.53;5005927;28;1430;-69
2021/06/16 04:33:08;;;;;;;;;;;;;;;23.20;60.43;100511.22;5008793;28;1537;-68
2021/06/16 04:35:33;;;;;;;;;;;;;;;23.17;60.21;100515.41;5010338;28;1655;-69
2021/06/16 04:37:58;;;;;;;;;;;;;;;23.18;60.13;100525.28;5004321;28;1528;-68
2021/06/16 04:40:24;;;;;;;;;;;;;;;23.18;60.04;100517.06;5007488;28;1426;-68
2021/06/16 04:42:49;;;;;;;;;;;;;;;23.16;60.03;100516.56;5009285;28;1879;-70
2021/06/16 04:45:15;;;;;;;;;;;;;;;23.17;60.13;100520.91;5016066;28;782;-68
2021/06/16 04:47:40;;;;;;;;;;;;;;;23.20;60.31;100523.03;5009826;28;1382;-70
2021/06/16 04:50:10;;;;;;;;;;;;;;;23.25;61.15;100517.38;5012014;28;1414;-74
2021/06/16 04:52:36;;;;;;;;;;;;;;;23.28;61.01;100532.41;5006777;28;1442;-69
2021/06/16 04:55:01;;;;;;;;;;;;;;;23.29;61.73;100526.63;4995510;28;721;-68
2021/06/16 04:57:26;;;;;;;;;;;;;;;23.37;62.27;100525.03;5003351;28;1596;-71
2021/06/16 04:59:52;;;;;;;;;;;;;;;23.46;62.99;100536.03;5002711;28;1430;-71
2021/06/16 05:02:17;;;;;;;;;;;;;;;23.64;62.60;100523.16;5006654;28;1433;-69
2021/06/16 05:04:43;;;;;;;;;;;;;;;23.87;61.47;100523.88;5001157;28;1910;-68
2021/06/16 05:07:08;;;;;;;;;;;;;;;24.17;60.52;100522.13;5002484;28;1407;-68
2021/06/16 05:09:33;;;;;;;;;;;;;;;24.09;59.81;100533.94;5004662;28;1624;-76
2021/06/16 05:11:58;;;;;;;;;;;;;;;23.84;59.95;100528.06;5006453;28;1497;-76
2021/06/16 05:14:24;;;;;;;;;;;;;;;23.47;60.24;100529.44;5005950;28;1505;-76
2021/06/16 05:16:50;;;;;;;;;;;;;;;23.09;61.03;100536.22;4998700;28;1311;-86
2021/06/16 05:19:17;;;;;;;;;;;;;;;22.82;61.69;100541.84;5006002;28;1178;-83
2021/06/16 05:21:42;;;;;;;;;;;;;;;22.47;62.07;100539.69;4996939;28;792;-86
2021/06/16 05:24:08;;;;;;;;;;;;;;;22.36;62.97;100545.75;4994858;28;1933;-84
2021/06/16 05:26:35;;;;;;;;;;;;;;;22.32;63.00;100540.88;4998727;28;761;-85
2021/06/16 05:29:00;;;;;;;;;;;;;;;22.28;63.18;100541.81;5015656;28;752;-85
2021/06/16 05:31:25;;;;;;;;;;;;;;;22.43;63.42;100533.19;5009574;28;1572;-87
2021/06/16 05:33:51;;;;;;;;;;;;;;;22.39;62.82;100545.13;5010217;28;1462;-88
2021/06/16 05:36:16;;;;;;;;;;;;;;;22.35;63.74;100533.94;5005404;28;753;-91
2021/06/16 05:38:41;;;;;;;;;;;;;;;22.30;64.00;100540.38;5011331;28;834;-89
2021/06/16 05:41:07;;;;;;;;;;;;;;;22.16;63.86;100544.28;5002031;28;1541;-89
2021/06/16 05:43:32;;;;;;;;;;;;;;;21.96;63.88;100543.59;5004820;28;1906;-90
2021/06/16 05:45:58;;;;;;;;;;;;;;;21.82;64.75;100548.31;5015133;28;1342;-91
2021/06/16 05:48:23;;;;;;;;;;;;;;;21.69;65.25;100545.28;5005881;28;1247;-87
2021/06/16 05:50:48;;;;;;;;;;;;;;;21.58;65.21;100552.06;4997336;28;1262;-87
2021/06/16 05:53:14;;;;;;;;;;;;;;;21.51;65.71;100548.91;4995861;28;1148;-87
2021/06/16 05:55:39;;;;;;;;;;;;;;;21.40;65.30;100551.03;4995073;28;1195;-88
2021/06/16 05:58:05;;;;;;;;;;;;;;;21.14;65.28;100546.03;4995878;28;839;-85
2021/06/16 06:00:30;;;;;;;;;;;;;;;20.95;65.78;100550.78;4995290;28;1315;-88
2021/06/16 06:02:55;;;;;;;;;;;;;;;21.00;67.30;100553.41;4994991;28;1892;-86
2021/06/16 06:05:21;;;;;;;;;;;;;;;21.04;66.82;100551.69;5011334;28;1099;-87
2021/06/16 06:07:46;;;;;;;;;;;;;;;21.06;66.79;100562.34;4995773;28;1212;-89
2021/06/16 06:10:11;;;;;;;;;;;;;;;21.03;66.23;100558.31;4996512;28;1169;-91
2021/06/16 06:12:37;;;;;;;;;;;;;;;20.92;66.84;100556.84;4996983;28;1374;-88
2021/06/16 06:15:03;;;;;;;;;;;;;;;20.84;67.12;100555.59;4998562;28;709;-88
2021/06/16 06:17:28;;;;;;;;;;;;;;;20.79;67.75;100563.13;4998855;28;854;-90
2021/06/16 06:19:53;;;;;;;;;;;;;;;20.75;67.69;100569.16;4997590;28;1180;-87
2021/06/16 06:22:18;;;;;;;;;;;;;;;20.69;67.43;100559.44;4997712;28;1224;-90
2021/06/16 06:24:44;;;;;;;;;;;;;;;20.60;68.13;100566.69;4999304;28;1903;-90
2021/06/16 06:27:09;;;;;;;;;;;;;;;20.66;68.13;100570.16;4998337;28;1176;-89
2021/06/16 06:29:34;;;;;;;;;;;;;;;20.77;68.54;100562.59;4997806;28;1298;-90
2021/06/16 06:32:00;;;;;;;;;;;;;;;20.86;67.87;100577.22;4997207;28;1283;-91
2021/06/16 06:34:25;;;;;;;;;;;;;;;20.94;68.09;100569.13;4998092;28;763;-89
2021/06/16 06:36:51;;;;;;;;;;;;;;;21.00;67.86;100558.88;4997865;28;772;-90
2021/06/16 06:39:17;;;;;;;;;;;;;;;21.08;67.60;100579.28;4996803;28;1176;-89
2021/06/16 06:41:44;;;;;;;;;;;;;;;21.05;66.62;100588.13;4997014;28;1165;-88
2021/06/16 06:44:09;;;;;;;;;;;;;;;21.02;66.99;100585.97;4998143;28;1949;-90
2021/06/16 06:46:34;;;;;;;;;;;;;;;21.07;65.28;100581.22;4997520;28;866;-79
2021/06/16 06:49:00;;;;;;;;;;;;;;;21.01;63.93;100587.09;4995942;28;769;-79
2021/06/16 06:51:25;;;;;;;;;;;;;;;21.21;64.55;100596.84;4995976;28;734;-79
2021/06/16 06:53:50;;;;;;;;;;;;;;;21.54;63.33;100583.94;5027276;28;1235;-78
2021/06/16 06:56:15;;;;;;;;;;;;;;;21.87;62.20;100586.56;4995702;28;768;-79
2021/06/16 06:58:41;;;;;;;;;;;;;;;22.50;60.53;100576.69;4995600;28;808;-79
2021/06/16 07:01:06;;;;;;;;;;;;;;;23.08;59.04;100573.06;4996454;28;771;-86
2021/06/16 07:03:32;;;;;;;;;;;;;;;23.44;56.52;100580.34;4994821;28;1896;-78
2021/06/16 07:05:57;;;;;;;;;;;;;;;23.61;55.95;100571.34;4998359;28;777;-91
2021/06/16 07:08:23;;;;;;;;;;;;;;;23.80;54.83;100578.53;5000098;28;1184;-84
2021/06/16 07:10:48;;;;;;;;;;;;;;;24.09;53.13;100589.78;4999332;28;1199;-79
2021/06/16 07:13:14;;;;;;;;;;;;;;;24.13;52.66;100579.75;4998232;28;1370;-79
2021/06/16 07:15:39;;;;;;;;;;;;;;;23.89;53.17;100591.19;4999500;28;838;-79
2021/06/16 07:18:04;;;;;;;;;;;;;;;23.65;54.72;100597.06;4999898;28;850;-80
2021/06/16 07:20:30;;;;;;;;;;;;;;;23.22;55.34;100596.88;4999637;28;736;-80
2021/06/16 07:22:56;;;;;;;;;;;;;;;23.01;56.92;100594.66;5001100;28;1903;-90
2021/06/16 07:25:21;;;;;;;;;;;;;;;22.72;56.01;100600.59;4998455;28;1173;-79
2021/06/16 07:27:46;;;;;;;;;;;;;;;22.57;56.53;100604.50;4998065;28;838;-79
2021/06/16 07:30:12;;;;;;;;;;;;;;;22.34;55.80;100603.69;4999971;28;756;-79
2021/06/16 07:32:39;;;;;;;;;;;;;;;21.96;56.01;100616.84;4997834;28;1128;-77
2021/06/16 07:35:04;;;;;;;;;;;;;;;22.03;58.17;100611.72;4997733;28;1160;-76
2021/06/16 07:37:29;;;;;;;;;;;;;;;22.16;57.25;100612.84;4999351;28;715;-76
2021/06/16 07:39:55;;;;;;;;;;;;;;;22.17;57.20;100612.53;4997999;28;1414;-76
2021/06/16 07:42:20;;;;;;;;;;;;;;;22.31;57.24;100615.28;4997988;28;1144;-90
2021/06/16 07:44:46;;;;;;;;;;;;;;;22.44;57.18;100613.63;5000059;28;1878;-85
2021/06/16 07:47:11;;;;;;;;;;;;;;;22.34;56.21;100625.63;4998931;28;1291;-87
2021/06/16 07:49:36;;;;;;;;;;;;;;;22.33;56.26;100629.50;5000931;28;800;-86
2021/06/16 07:52:02;;;;;;;;;;;;;;;22.34;56.34;100626.44;4999740;28;828;-85
2021/06/16 07:54:27;;;;;;;;;;;;;;;22.43;56.72;100626.50;5000590;28;793;-85
2021/06/16 07:56:53;;;;;;;;;;;;;;;22.52;56.44;100634.84;5000601;28;1357;-84
2021/06/16 07:59:18;;;;;;;;;;;;;;;22.66;54.98;100632.06;4998750;28;752;-81
2021/06/16 08:01:44;;;;;;;;;;;;;;;23.06;54.39;100634.94;4998798;28;1088;-79
2021/06/16 08:04:09;;;;;;;;;;;;;;;23.43;53.50;100630.16;5000154;28;1989;-81
2021/06/16 08:06:34;;;;;;;;;;;;;;;23.44;51.45;100635.34;4997346;28;1263;-77
2021/06/16 08:09:00;;;;;;;;;;;;;;;23.20;51.62;100641.19;4998409;28;777;-77
2021/06/16 08:11:25;;;;;;;;;;;;;;;23.04;52.81;100643.50;4998088;28;769;-77
2021/06/16 08:13:51;;;;;;;;;;;;;;;22.94;52.34;100646.47;4997456;28;740;-77
2021/06/16 08:16:18;;;;;;;;;;;;;;;22.87;53.69;100649.66;4997087;28;788;-78
2021/06/16 08:18:46;;;;;;;;;;;;;;;23.16;52.40;100656.69;4997878;28;786;-77
2021/06/16 08:21:13;;;;;;;;;;;;;;;23.33;51.95;100661.47;4998220;28;1473;-89
2021/06/16 08:23:39;;;;;;;;;;;;;;;23.48;52.01;100655.56;4997640;28;1933;-78
2021/06/16 08:26:04;;;;;;;;;;;;;;;23.63;50.62;100659.03;4998021;28;1314;-84
2021/06/16 08:28:29;;;;;;;;;;;;;;;23.84;49.66;100657.34;4998427;28;768;-84
2021/06/16 08:30:55;;;;;;;;;;;;;;;24.01;49.66;100656.59;4998684;28;788;-84
2021/06/16 08:33:20;;;;;;;;;;;;;;;23.98;50.19;100659.19;4998370;28;1156;-84
2021/06/16 08:35:45;;;;;;;;;;;;;;;23.80;49.32;100667.34;4997966;28;1153;-84
2021/06/16 08:38:11;;;;;;;;;;;;;;;23.56;49.43;100664.97;4998133;28;1200;-85
2021/06/16 08:40:36;;;;;;;;;;;;;;;23.60;50.46;100665.16;5001255;28;800;-85
2021/06/16 08:43:01;;;;;;;;;;;;;;;23.81;49.51;100670.94;5007877;28;1875;-86
2021/06/16 08:45:29;;;;;;;;;;;;;;;23.98;49.05;100670.19;4999476;28;1231;-85
2021/06/16 08:47:55;;;;;;;;;;;;;;;23.98;49.25;100659.97;4998423;28;719;-86
2021/06/16 08:50:20;;;;;;;;;;;;;;;23.90;47.65;100667.09;4997699;28;1239;-85
2021/06/16 08:52:46;;;;;;;;;;;;;;;23.92;48.82;100675.84;4999049;28;858;-86
2021/06/16 08:55:16;;;;;;;;;;;;;;;23.87;48.09;100670.47;4998744;28;791;-86
2021/06/16 08:57:42;;;;;;;;;;;;;;;23.89;48.59;100673.72;4998635;28;697;-84
2021/06/16 09:00:08;;;;;;;;;;;;;;;23.73;48.66;100684.28;4997643;28;1263;-86
2021/06/16 09:02:34;;;;;;;;;;;;;;;23.66;49.29;100685.88;4998298;28;1895;-93
2021/06/16 09:04:59;;;;;;;;;;;;;;;23.65;49.19;100692.50;4999000;28;748;-84
2021/06/16 09:07:26;;;;;;;;;;;;;;;23.76;48.49;100674.59;4998097;28;791;-85
2021/06/16 09:10:10;;;;;;;;;;;;;;;23.95;48.97;100670.84;4998531;28;978;-87
2021/06/16 09:12:38;;;;;;;;;;;;;;;24.05;48.73;100665.03;5029720;28;1128;-85
2021/06/16 09:15:09;;;;;;;;;;;;;;;24.20;48.12;100664.56;4997821;28;1168;-85
2021/06/16 09:17:34;;;;;;;;;;;;;;;24.17;46.27;100672.69;4999039;28;752;-85
2021/06/16 09:19:59;;;;;;;;;;;;;;;23.95;47.12;100670.84;4998530;28;856;-85
2021/06/16 09:22:28;;;;;;;;;;;;;;;23.99;46.67;100680.06;4997073;28;1181;-86
2021/06/16 09:24:54;;;;;;;;;;;;;;;24.07;46.59;100677.34;5030201;28;1945;-86
2021/06/16 09:27:38;;;;;;;;;;;;;;;24.26;46.65;100666.03;4997620;28;823;-85
2021/06/16 09:30:04;;;;;;;;;;;;;;;24.31;45.84;100671.41;5029680;28;1225;-85
2021/06/16 09:32:43;;;;;;;;;;;;;;;24.44;46.02;100677.09;4997103;28;1259;-76
2021/06/16 09:35:27;;;;;;;;;;;;;;;24.49;44.96;100683.25;4997157;28;793;-76
2021/06/16 09:37:53;;;;;;;;;;;;;;;24.26;44.27;100679.00;4995390;28;1160;-68
2021/06/16 09:40:25;;;;;;;;;;;;;;;24.26;48.45;100688.06;4995841;28;706;-67
2021/06/16 09:42:54;;;;;;;;;;;;;;;24.47;46.45;100681.97;4994846;28;1971;-67
2021/06/16 09:45:19;;;;;;;;;;;;;;;24.56;47.94;100690.25;4995854;28;769;-67
2021/06/16 09:47:45;;;;;;;;;;;;;;;24.68;45.90;100695.94;4995880;28;753;-67
2021/06/16 09:50:10;;;;;;;;;;;;;;;24.61;46.18;100690.91;4995883;28;847;-67
2021/06/16 09:52:35;;;;;;;;;;;;;;;24.47;44.45;100688.28;4994724;28;1248;-69
2021/06/16 09:55:03;;;;;;;;;;;;;;;24.55;47.84;100683.09;4995846;28;833;-69
2021/06/16 09:57:29;;;;;;;;;;;;;;;24.68;47.57;100693.19;4995724;28;705;-67
2021/06/16 09:59:58;;;;;;;;;;;;;;;24.76;46.75;100688.81;4995807;28;749;-66
2021/06/16 10:02:24;;;;;;;;;;;;;;;24.79;45.39;100696.41;4995539;28;1155;-66
2021/06/16 10:04:55;;;;;;;;;;;;;;;24.79;44.95;100688.97;4995484;28;1983;-66
2021/06/16 10:07:22;;;;;;;;;;;;;;;24.89;45.36;100701.59;4995486;28;760;-66
2021/06/16 10:09:52;;;;;;;;;;;;;;;24.82;43.51;100693.81;4995521;28;792;-66
2021/06/16 10:12:18;;;;;;;;;;;;;;;24.77;45.96;100702.25;4995342;28;764;-68
2021/06/16 10:14:43;;;;;;;;;;;;;;;24.80;44.19;100707.09;4994347;28;758;-68
2021/06/16 10:17:09;;;;;;;;;;;;;;;24.81;46.30;100705.16;4995248;28;1041;-68
2021/06/16 10:19:35;;;;;;;;;;;;;;;24.80;43.52;100709.88;4995326;28;788;-68
2021/06/16 10:22:02;;;;;;;;;;;;;;;24.76;44.30;100699.81;4994087;28;1172;-67
2021/06/16 10:24:27;;;;;;;;;;;;;;;24.78;45.02;100692.84;4995126;28;1863;-68
2021/06/16 10:26:55;;;;;;;;;;;;;;;24.83;43.48;100702.88;4994767;28;773;-68
2021/06/16 10:29:21;;;;;;;;;;;;;;;24.72;43.39;100707.91;4995608;28;725;-68
2021/06/16 10:31:47;;;;;;;;;;;;;;;24.72;45.05;100699.66;4995238;28;808;-68
2021/06/16 10:34:12;;;;;;;;;;;;;;;24.70;43.51;100699.97;4995379;28;733;-68
2021/06/16 10:36:39;;;;;;;;;;;;;;;24.76;43.76;100700.63;4995229;28;768;-68
2021/06/16 10:39:06;;;;;;;;;;;;;;;24.65;43.23;100702.91;4995002;28;796;-68
2021/06/16 10:41:40;;;;;;;;;;;;;;;24.56;44.85;100702.06;4998361;28;757;-66
2021/06/16 10:44:14;;;;;;;;;;;;;;;24.62;46.31;100689.75;4998826;28;1866;-66
2021/06/16 10:46:51;;;;;;;;;;;;;;;24.82;45.71;100696.56;4998557;28;737;-66
2021/06/16 10:49:36;;;;;;;;;;;;;;;24.88;45.51;100698.03;4998756;28;809;-66
2021/06/16 10:52:02;;;;;;;;;;;;;;;24.87;43.53;100701.09;4998558;28;1015;-66
2021/06/16 10:54:28;;;;;;;;;;;;;;;24.71;44.09;100714.56;4998792;28;757;-66
2021/06/16 10:57:00;;;;;;;;;;;;;;;24.44;43.94;100699.91;4998671;28;796;-67
2021/06/16 10:59:44;;;;;;;;;;;;;;;24.41;46.31;100696.97;4998568;28;772;-67
2021/06/16 11:02:17;;;;;;;;;;;;;;;24.62;46.33;100703.53;4998333;28;1099;-67
2021/06/16 11:04:43;;;;;;;;;;;;;;;24.69;45.00;100711.34;4998740;28;1906;-67
2021/06/16 11:07:27;;;;;;;;;;;;;;;24.73;43.25;100704.03;4998791;28;717;-67
2021/06/16 11:09:53;;;;;;;;;;;;;;;24.78;42.65;100700.31;4998666;28;753;-67
2021/06/16 11:12:29;;;;;;;;;;;;;;;24.76;44.51;100695.13;4998630;28;725;-69
2021/06/16 11:16:22;;;;;;;;;;;;;;;25.20;60.33;100728.19;5145125;27;1786;-88
2021/06/16 11:18:48;;;;;;;;;;;;;;;24.81;58.84;100725.28;5105521;28;1321;-76
2021/06/16 11:21:16;;;;;;;;;;;;;;;24.65;56.66;100732.34;5096426;28;1232;-75
2021/06/16 11:23:48;;;;;;;;;;;;;;;24.47;57.84;100726.00;5105714;27;18337;-76
2021/06/16 11:26:32;;;;;;;;;;;;;;;24.30;56.35;100735.81;5072092;28;1295;-77
2021/06/16 11:28:57;;;;;;;;;;;;;;;24.23;56.19;100732.75;5072041;28;1211;-76
2021/06/16 11:31:23;;;;;;;;;;;;;;;24.16;55.25;100745.34;5075185;28;1187;-76
2021/06/16 11:33:48;;;;;;;;;;;;;;;24.07;54.96;100748.88;5086204;28;1914;-77
